sensor_id;sensor_type;location;lat;lon;timestamp;pressure;altitude;pressure_sealevel;temperature;humidity
38400;BME280;24180;42.676;23.320;2023-09-12T00:00:53;94977.53;;;15.68;78.23
38400;BME280;24180;42.676;23.320;2023-09-12T00:03:22;94991.78;;;15.73;78.23
38400;BME280;24180;42.676;23.320;2023-09-12T00:05:55;94988.13;;;15.65;78.24
38400;BME280;24180;42.676;23.320;2023-09-12T00:08:21;95011.44;;;15.66;78.24
38400;BME280;24180;42.676;23.320;2023-09-12T00:10:58;95013.59;;;15.64;78.24
38400;BME280;24180;42.676;23.320;2023-09-12T00:13:23;95009.63;;;15.58;78.24
38400;BME280;24180;42.676;23.320;2023-09-12T00:15:49;94969.94;;;15.52;78.24
38400;BME280;24180;42.676;23.320;2023-09-12T00:18:14;59961.25;;;24.51;78.00
38400;BME280;24180;42.676;23.320;2023-09-12T00:20:39;95043.84;;;15.38;78.25
38400;BME280;24180;42.676;23.320;2023-09-12T00:23:05;94985.91;;;15.27;78.25
38400;BME280;24180;42.676;23.320;2023-09-12T00:25:30;59961.25;;;24.51;78.00
38400;BME280;24180;42.676;23.320;2023-09-12T00:27:56;94984.75;;;15.30;78.24
38400;BME280;24180;42.676;23.320;2023-09-12T00:30:21;59961.25;;;24.51;78.00
38400;BME280;24180;42.676;23.320;2023-09-12T00:32:46;94976.81;;;15.12;78.25
38400;BME280;24180;42.676;23.320;2023-09-12T00:35:12;59961.25;;;24.51;78.00
38400;BME280;24180;42.676;23.320;2023-09-12T00:37:37;94991.94;;;15.09;78.25
38400;BME280;24180;42.676;23.320;2023-09-12T00:40:03;59961.25;;;24.35;78.00
38400;BME280;24180;42.676;23.320;2023-09-12T00:42:29;94960.50;;;14.97;78.25
38400;BME280;24180;42.676;23.320;2023-09-12T00:44:54;94994.38;;;15.10;78.25
38400;BME280;24180;42.676;23.320;2023-09-12T00:47:21;94962.03;;;15.00;78.25
38400;BME280;24180;42.676;23.320;2023-09-12T00:49:48;94960.66;;;14.92;78.25
38400;BME280;24180;42.676;23.320;2023-09-12T00:52:14;95019.03;;;15.13;78.25
38400;BME280;24180;42.676;23.320;2023-09-12T00:54:40;59961.25;;;26.14;78.00
38400;BME280;24180;42.676;23.320;2023-09-12T00:57:05;94986.47;;;15.02;78.25
38400;BME280;24180;42.676;23.320;2023-09-12T00:59:31;94999.78;;;15.14;78.25
38400;BME280;24180;42.676;23.320;2023-09-12T01:01:57;94984.47;;;14.95;78.25
38400;BME280;24180;42.676;23.320;2023-09-12T01:04:23;95036.56;;;15.07;78.25
38400;BME280;24180;42.676;23.320;2023-09-12T01:06:49;95021.50;;;15.01;78.07
38400;BME280;24180;42.676;23.320;2023-09-12T01:09:14;95022.91;;;14.95;78.07
38400;BME280;24180;42.676;23.320;2023-09-12T01:11:40;95019.09;;;14.90;78.25
38400;BME280;24180;42.676;23.320;2023-09-12T01:14:06;94977.88;;;14.58;78.26
38400;BME280;24180;42.676;23.320;2023-09-12T01:16:31;95020.56;;;14.84;78.07
38400;BME280;24180;42.676;23.320;2023-09-12T01:18:56;94995.06;;;14.78;78.07
38400;BME280;24180;42.676;23.320;2023-09-12T01:27:30;95020.81;;;14.81;78.08
38400;BME280;24180;42.676;23.320;2023-09-12T01:30:01;94999.03;;;14.64;78.08
38400;BME280;24180;42.676;23.320;2023-09-12T01:32:29;95004.31;;;14.73;78.07
38400;BME280;24180;42.676;23.320;2023-09-12T01:34:55;95010.00;;;14.58;78.08
38400;BME280;24180;42.676;23.320;2023-09-12T01:37:20;95008.75;;;14.62;78.08
38400;BME280;24180;42.676;23.320;2023-09-12T01:39:45;95003.47;;;14.45;78.08
38400;BME280;24180;42.676;23.320;2023-09-12T01:42:14;95026.16;;;14.62;78.08
38400;BME280;24180;42.676;23.320;2023-09-12T01:44:43;95027.81;;;14.63;78.08
38400;BME280;24180;42.676;23.320;2023-09-12T01:47:11;95034.66;;;14.64;78.08
38400;BME280;24180;42.676;23.320;2023-09-12T01:49:39;95026.47;;;14.59;78.08
38400;BME280;24180;42.676;23.320;2023-09-12T01:52:06;95038.00;;;14.56;78.08
38400;BME280;24180;42.676;23.320;2023-09-12T01:54:33;95015.03;;;14.42;78.09
38400;BME280;24180;42.676;23.320;2023-09-12T01:57:00;94972.31;;;14.25;78.09
38400;BME280;24180;42.676;23.320;2023-09-12T01:59:28;94982.44;;;14.28;78.08
38400;BME280;24180;42.676;23.320;2023-09-12T02:01:53;95004.66;;;14.32;78.27
38400;BME280;24180;42.676;23.320;2023-09-12T02:04:19;94995.13;;;14.23;78.08
38400;BME280;24180;42.676;23.320;2023-09-12T02:06:44;95013.09;;;14.44;78.08
38400;BME280;24180;42.676;23.320;2023-09-12T02:09:09;95035.88;;;14.42;78.09
38400;BME280;24180;42.676;23.320;2023-09-12T02:11:35;95022.44;;;14.37;78.09
38400;BME280;24180;42.676;23.320;2023-09-12T02:14:00;94998.69;;;14.22;78.08
38400;BME280;24180;42.676;23.320;2023-09-12T02:16:25;95011.81;;;14.30;78.09
38400;BME280;24180;42.676;23.320;2023-09-12T02:18:51;95033.75;;;14.28;78.08
38400;BME280;24180;42.676;23.320;2023-09-12T02:21:16;95033.22;;;14.24;78.09
38400;BME280;24180;42.676;23.320;2023-09-12T02:23:42;95017.03;;;14.21;78.09
38400;BME280;24180;42.676;23.320;2023-09-12T02:26:07;94995.75;;;14.07;78.09
38400;BME280;24180;42.676;23.320;2023-09-12T02:28:33;95029.09;;;14.22;78.08
38400;BME280;24180;42.676;23.320;2023-09-12T02:30:58;95029.72;;;14.16;78.09
38400;BME280;24180;42.676;23.320;2023-09-12T02:33:23;95017.69;;;14.03;78.10
38400;BME280;24180;42.676;23.320;2023-09-12T02:35:49;94999.34;;;13.97;78.10
38400;BME280;24180;42.676;23.320;2023-09-12T02:38:14;95001.81;;;13.98;78.10
38400;BME280;24180;42.676;23.320;2023-09-12T02:40:40;95008.34;;;14.12;78.09
38400;BME280;24180;42.676;23.320;2023-09-12T02:43:05;95015.47;;;14.10;78.10
38400;BME280;24180;42.676;23.320;2023-09-12T02:45:31;95021.19;;;14.14;78.09
38400;BME280;24180;42.676;23.320;2023-09-12T02:47:56;94995.91;;;13.96;78.09
38400;BME280;24180;42.676;23.320;2023-09-12T02:50:21;94990.34;;;13.91;78.09
38400;BME280;24180;42.676;23.320;2023-09-12T02:52:47;94988.69;;;13.90;78.09
38400;BME280;24180;42.676;23.320;2023-09-12T02:55:12;95024.56;;;13.96;78.09
38400;BME280;24180;42.676;23.320;2023-09-12T02:57:37;95042.09;;;14.04;78.10
38400;BME280;24180;42.676;23.320;2023-09-12T03:00:03;95021.00;;;13.97;78.10
38400;BME280;24180;42.676;23.320;2023-09-12T03:02:32;94999.78;;;13.91;78.09
38400;BME280;24180;42.676;23.320;2023-09-12T03:04:57;95028.97;;;13.96;78.09
38400;BME280;24180;42.676;23.320;2023-09-12T03:07:23;95005.44;;;13.78;78.09
38400;BME280;24180;42.676;23.320;2023-09-12T03:09:49;95032.53;;;13.85;78.10
38400;BME280;24180;42.676;23.320;2023-09-12T03:12:17;95014.09;;;13.79;78.09
38400;BME280;24180;42.676;23.320;2023-09-12T03:14:43;95001.69;;;13.63;78.10
38400;BME280;24180;42.676;23.320;2023-09-12T03:17:08;95033.16;;;13.79;78.10
38400;BME280;24180;42.676;23.320;2023-09-12T03:19:33;95017.25;;;13.72;78.10
38400;BME280;24180;42.676;23.320;2023-09-12T03:21:59;94982.75;;;13.61;78.10
38400;BME280;24180;42.676;23.320;2023-09-12T03:24:24;94994.84;;;13.52;78.10
38400;BME280;24180;42.676;23.320;2023-09-12T03:26:51;95064.41;;;13.60;78.10
38400;BME280;24180;42.676;23.320;2023-09-12T03:29:16;95013.69;;;13.64;78.10
38400;BME280;24180;42.676;23.320;2023-09-12T03:31:42;59961.25;;;24.51;78.00
38400;BME280;24180;42.676;23.320;2023-09-12T03:34:07;95019.19;;;13.70;78.10
38400;BME280;24180;42.676;23.320;2023-09-12T03:36:33;95020.53;;;13.65;78.11
38400;BME280;24180;42.676;23.320;2023-09-12T03:38:58;59961.25;;;24.51;77.82
38400;BME280;24180;42.676;23.320;2023-09-12T03:41:23;94997.84;;;13.57;78.10
38400;BME280;24180;42.676;23.320;2023-09-12T03:43:53;95026.88;;;13.62;78.10
38400;BME280;24180;42.676;23.320;2023-09-12T03:46:19;60045.09;;;24.51;77.81
38400;BME280;24180;42.676;23.320;2023-09-12T03:48:44;95021.16;;;13.49;78.10
38400;BME280;24180;42.676;23.320;2023-09-12T03:51:11;94993.66;;;13.35;78.11
38400;BME280;24180;42.676;23.320;2023-09-12T03:53:36;95024.56;;;13.50;78.10
38400;BME280;24180;42.676;23.320;2023-09-12T03:56:02;95026.88;;;13.53;78.10
38400;BME280;24180;42.676;23.320;2023-09-12T03:58:27;94964.81;;;13.21;78.10
38400;BME280;24180;42.676;23.320;2023-09-12T04:00:53;95004.75;;;13.28;78.11
38400;BME280;24180;42.676;23.320;2023-09-12T04:03:18;95011.09;;;13.27;78.11
38400;BME280;24180;42.676;23.320;2023-09-12T04:05:46;95007.78;;;13.34;78.11
38400;BME280;24180;42.676;23.320;2023-09-12T04:08:12;95021.19;;;13.39;78.10
38400;BME280;24180;42.676;23.320;2023-09-12T04:10:38;95026.38;;;13.39;78.10
38400;BME280;24180;42.676;23.320;2023-09-12T04:13:03;95018.59;;;13.39;78.10
38400;BME280;24180;42.676;23.320;2023-09-12T04:15:28;94980.53;;;13.27;78.11
38400;BME280;24180;42.676;23.320;2023-09-12T04:17:54;95007.50;;;13.37;78.10
38400;BME280;24180;42.676;23.320;2023-09-12T04:20:19;95001.50;;;13.27;78.11
38400;BME280;24180;42.676;23.320;2023-09-12T04:22:45;95026.38;;;13.39;78.10
38400;BME280;24180;42.676;23.320;2023-09-12T04:25:10;94999.31;;;13.23;78.11
38400;BME280;24180;42.676;23.320;2023-09-12T04:27:36;95015.97;;;13.30;78.11
38400;BME280;24180;42.676;23.320;2023-09-12T04:30:02;95014.34;;;13.27;78.11
38400;BME280;24180;42.676;23.320;2023-09-12T04:32:27;95013.00;;;13.25;78.11
38400;BME280;24180;42.676;23.320;2023-09-12T04:34:53;95009.13;;;13.29;78.11
38400;BME280;24180;42.676;23.320;2023-09-12T04:37:19;95024.41;;;13.40;78.10
38400;BME280;24180;42.676;23.320;2023-09-12T04:39:45;95031.59;;;13.39;78.10
38400;BME280;24180;42.676;23.320;2023-09-12T04:42:10;95000.91;;;13.33;78.10
38400;BME280;24180;42.676;23.320;2023-09-12T04:44:36;95027.75;;;13.43;78.10
38400;BME280;24180;42.676;23.320;2023-09-12T04:47:02;95036.47;;;13.52;78.10
38400;BME280;24180;42.676;23.320;2023-09-12T04:49:28;95040.00;;;13.61;78.10
38400;BME280;24180;42.676;23.320;2023-09-12T04:51:53;60028.25;;;24.35;77.82
38400;BME280;24180;42.676;23.320;2023-09-12T04:54:19;95024.47;;;13.51;78.10
38400;BME280;24180;42.676;23.320;2023-09-12T04:56:44;95039.56;;;13.64;78.10
38400;BME280;24180;42.676;23.320;2023-09-12T04:59:09;95035.31;;;13.74;78.10
38400;BME280;24180;42.676;23.320;2023-09-12T05:01:35;95008.53;;;13.54;78.10
38400;BME280;24180;42.676;23.320;2023-09-12T05:04:00;95022.22;;;13.66;78.10
38400;BME280;24180;42.676;23.320;2023-09-12T05:06:26;95038.88;;;13.73;78.10
38400;BME280;24180;42.676;23.320;2023-09-12T05:08:51;95046.53;;;13.73;78.10
38400;BME280;24180;42.676;23.320;2023-09-12T05:11:17;95049.84;;;13.76;78.10
38400;BME280;24180;42.676;23.320;2023-09-12T05:13:42;95032.09;;;13.62;78.10
38400;BME280;24180;42.676;23.320;2023-09-12T05:16:08;95058.66;;;13.66;78.10
38400;BME280;24180;42.676;23.320;2023-09-12T05:18:33;95022.50;;;13.63;78.10
38400;BME280;24180;42.676;23.320;2023-09-12T05:20:58;95052.56;;;13.83;78.09
38400;BME280;24180;42.676;23.320;2023-09-12T05:23:24;95043.56;;;13.79;78.09
38400;BME280;24180;42.676;23.320;2023-09-12T05:25:49;95032.84;;;13.82;78.10
38400;BME280;24180;42.676;23.320;2023-09-12T05:28:15;95060.22;;;13.96;78.09
38400;BME280;24180;42.676;23.320;2023-09-12T05:30:42;95039.13;;;13.89;78.09
38400;BME280;24180;42.676;23.320;2023-09-12T05:33:07;95046.91;;;13.99;78.10
38400;BME280;24180;42.676;23.320;2023-09-12T05:35:33;95060.41;;;14.12;78.09
38400;BME280;24180;42.676;23.320;2023-09-12T05:37:58;95073.78;;;14.27;78.09
38400;BME280;24180;42.676;23.320;2023-09-12T05:40:24;95052.16;;;14.17;78.08
38400;BME280;24180;42.676;23.320;2023-09-12T05:42:49;95053.97;;;14.16;78.27
38400;BME280;24180;42.676;23.320;2023-09-12T05:45:14;95054.59;;;14.28;78.08
38400;BME280;24180;42.676;23.320;2023-09-12T05:47:40;95075.88;;;14.51;78.26
38400;BME280;24180;42.676;23.320;2023-09-12T05:50:06;95075.56;;;14.54;78.08
38400;BME280;24180;42.676;23.320;2023-09-12T05:52:32;95074.50;;;14.56;78.08
38400;BME280;24180;42.676;23.320;2023-09-12T05:54:58;95080.16;;;14.69;78.08
38400;BME280;24180;42.676;23.320;2023-09-12T05:57:23;95087.56;;;14.74;78.26
38400;BME280;24180;42.676;23.320;2023-09-12T05:59:49;95080.94;;;14.80;78.07
38400;BME280;24180;42.676;23.320;2023-09-12T06:02:15;95062.63;;;14.72;78.08
38400;BME280;24180;42.676;23.320;2023-09-12T06:04:40;95067.91;;;14.80;78.25
38400;BME280;24180;42.676;23.320;2023-09-12T06:07:06;95079.47;;;14.95;78.25
38400;BME280;24180;42.676;23.320;2023-09-12T06:09:31;95089.84;;;15.05;78.25
38400;BME280;24180;42.676;23.320;2023-09-12T06:11:57;95068.00;;;14.88;78.26
38400;BME280;24180;42.676;23.320;2023-09-12T06:14:22;95055.59;;;15.00;78.26
38400;BME280;24180;42.676;23.320;2023-09-12T06:16:48;95086.44;;;15.22;78.25
38400;BME280;24180;42.676;23.320;2023-09-12T06:19:13;95094.81;;;15.43;78.24
38400;BME280;24180;42.676;23.320;2023-09-12T06:21:45;95089.41;;;15.60;78.24
38400;BME280;24180;42.676;23.320;2023-09-12T06:24:12;59961.25;;;26.14;77.81
38400;BME280;24180;42.676;23.320;2023-09-12T06:26:38;95078.00;;;15.62;78.23
38400;BME280;24180;42.676;23.320;2023-09-12T06:29:04;95058.72;;;15.60;78.24
38400;BME280;24180;42.676;23.320;2023-09-12T06:31:30;95082.31;;;15.91;78.23
38400;BME280;24180;42.676;23.320;2023-09-12T06:33:55;95093.50;;;16.01;78.23
38400;BME280;24180;42.676;23.320;2023-09-12T06:36:22;59961.25;;;24.51;78.00
38400;BME280;24180;42.676;23.320;2023-09-12T06:38:49;95073.03;;;16.14;78.22
38400;BME280;24180;42.676;23.320;2023-09-12T06:41:14;95093.31;;;16.20;78.22
38400;BME280;24180;42.676;23.320;2023-09-12T06:43:40;59961.25;;;24.51;78.00
38400;BME280;24180;42.676;23.320;2023-09-12T06:46:05;59961.25;;;24.51;78.00
38400;BME280;24180;42.676;23.320;2023-09-12T06:48:30;95075.34;;;16.47;78.21
38400;BME280;24180;42.676;23.320;2023-09-12T06:50:56;95103.94;;;16.76;78.21
38400;BME280;24180;42.676;23.320;2023-09-12T06:53:21;95113.75;;;16.75;78.21
38400;BME280;24180;42.676;23.320;2023-09-12T06:55:46;95097.47;;;16.91;78.21
38400;BME280;24180;42.676;23.320;2023-09-12T06:58:12;95098.38;;;17.08;78.21
38400;BME280;24180;42.676;23.320;2023-09-12T07:00:37;95098.38;;;17.08;78.21
38400;BME280;24180;42.676;23.320;2023-09-12T07:03:03;95124.50;;;17.40;78.20
38400;BME280;24180;42.676;23.320;2023-09-12T07:05:29;95083.41;;;17.34;78.20
38400;BME280;24180;42.676;23.320;2023-09-12T07:07:54;59961.25;;;24.51;78.00
38400;BME280;24180;42.676;23.320;2023-09-12T07:10:19;95108.16;;;17.56;78.19
38400;BME280;24180;42.676;23.320;2023-09-12T07:12:45;95117.72;;;17.65;78.19
38400;BME280;24180;42.676;23.320;2023-09-12T07:15:10;59961.25;;;24.51;78.00
38400;BME280;24180;42.676;23.320;2023-09-12T07:17:35;95109.28;;;18.02;78.18
38400;BME280;24180;42.676;23.320;2023-09-12T07:20:01;95124.34;;;18.08;78.18
38400;BME280;24180;42.676;23.320;2023-09-12T07:22:27;95089.47;;;18.16;78.17
38400;BME280;24180;42.676;23.320;2023-09-12T07:24:52;60130.03;;;26.14;78.00
38400;BME280;24180;42.676;23.320;2023-09-12T07:27:17;95131.75;;;18.62;78.16
38400;BME280;24180;42.676;23.320;2023-09-12T07:29:43;60130.03;;;24.84;79.48
38400;BME280;24180;42.676;23.320;2023-09-12T07:32:08;95125.19;;;18.67;78.16
38400;BME280;24180;42.676;23.320;2023-09-12T07:34:34;59961.25;;;24.51;78.37
38400;BME280;24180;42.676;23.320;2023-09-12T07:36:59;59961.25;;;24.51;78.37
38400;BME280;24180;42.676;23.320;2023-09-12T07:39:24;59961.25;;;24.51;78.00
38400;BME280;24180;42.676;23.320;2023-09-12T07:41:50;95054.31;;;19.08;78.15
38400;BME280;24180;42.676;23.320;2023-09-12T07:44:15;59995.00;;;24.51;78.00
38400;BME280;24180;42.676;23.320;2023-09-12T07:46:42;59827.19;;;24.51;78.37
38400;BME280;24180;42.676;23.320;2023-09-12T07:49:08;59827.19;;;24.51;78.37
38400;BME280;24180;42.676;23.320;2023-09-12T07:51:34;59827.19;;;24.51;78.37
38400;BME280;24180;42.676;23.320;2023-09-12T07:54:00;59827.19;;;24.51;78.37
38400;BME280;24180;42.676;23.320;2023-09-12T07:56:26;59793.53;;;24.51;78.37
38400;BME280;24180;42.676;23.320;2023-09-12T07:58:51;59156.06;;;24.51;79.85
38400;BME280;24180;42.676;23.320;2023-09-12T08:01:16;59793.53;;;24.51;77.94
38400;BME280;24180;42.676;23.320;2023-09-12T08:03:42;59827.19;;;24.51;78.32
38400;BME280;24180;42.676;23.320;2023-09-12T08:06:08;59961.88;;;26.14;77.94
38400;BME280;24180;42.676;23.320;2023-09-12T08:08:34;59827.19;;;24.51;79.83
38400;BME280;24180;42.676;23.320;2023-09-12T08:11:00;59827.19;;;24.84;78.32
38400;BME280;24180;42.676;23.320;2023-09-12T08:13:27;59289.31;;;24.51;79.83
38400;BME280;24180;42.676;23.320;2023-09-12T08:15:53;59156.06;;;24.51;79.71
38400;BME280;24180;42.676;23.320;2023-09-12T08:18:19;59156.06;;;24.84;79.85
38400;BME280;24180;42.676;23.320;2023-09-12T08:20:44;59289.31;;;24.84;79.80
38400;BME280;24180;42.676;23.320;2023-09-12T08:23:10;59289.31;;;24.84;79.80
38400;BME280;24180;42.676;23.320;2023-09-12T08:25:35;59289.31;;;24.84;79.83
38400;BME280;24180;42.676;23.320;2023-09-12T08:28:01;59289.31;;;24.84;79.83
38400;BME280;24180;42.676;23.320;2023-09-12T08:30:26;59289.31;;;24.84;79.83
38400;BME280;24180;42.676;23.320;2023-09-12T08:32:55;59289.31;;;24.84;79.83
38400;BME280;24180;42.676;23.320;2023-09-12T08:35:20;59289.31;;;26.14;79.83
38400;BME280;24180;42.676;23.320;2023-09-12T08:37:46;59289.31;;;24.84;79.80
38400;BME280;24180;42.676;23.320;2023-09-12T08:40:11;59289.31;;;24.84;79.80
38400;BME280;24180;42.676;23.320;2023-09-12T08:42:42;59156.06;;;24.84;79.83
38400;BME280;24180;42.676;23.320;2023-09-12T08:45:13;59289.31;;;24.84;79.83
38400;BME280;24180;42.676;23.320;2023-09-12T08:47:44;59289.31;;;24.84;79.83
38400;BME280;24180;42.676;23.320;2023-09-12T08:50:14;59289.31;;;24.84;79.80
38400;BME280;24180;42.676;23.320;2023-09-12T08:52:43;59289.31;;;24.84;79.83
38400;BME280;24180;42.676;23.320;2023-09-12T08:55:10;59289.31;;;24.84;79.80
38400;BME280;24180;42.676;23.320;2023-09-12T08:57:41;59289.31;;;24.84;79.83
38400;BME280;24180;42.676;23.320;2023-09-12T09:00:07;59289.31;;;24.84;79.80
38400;BME280;24180;42.676;23.320;2023-09-12T09:02:43;59289.31;;;24.84;79.80
38400;BME280;24180;42.676;23.320;2023-09-12T09:05:10;59289.31;;;24.84;79.46
38400;BME280;24180;42.676;23.320;2023-09-12T09:07:41;59289.31;;;24.84;79.80
38400;BME280;24180;42.676;23.320;2023-09-12T09:10:10;59289.31;;;24.51;79.83
38400;BME280;24180;42.676;23.320;2023-09-12T09:12:36;59289.31;;;24.84;79.80
38400;BME280;24180;42.676;23.320;2023-09-12T09:17:48;59289.31;;;24.84;79.83
38400;BME280;24180;42.676;23.320;2023-09-12T09:20:29;59289.31;;;24.84;79.80
38400;BME280;24180;42.676;23.320;2023-09-12T09:23:06;59289.31;;;26.14;79.80
38400;BME280;24180;42.676;23.320;2023-09-12T09:25:33;59289.31;;;24.84;79.80
38400;BME280;24180;42.676;23.320;2023-09-12T09:28:02;59289.31;;;24.51;79.80
38400;BME280;24180;42.676;23.320;2023-09-12T09:30:41;59289.31;;;24.84;79.83
38400;BME280;24180;42.676;23.320;2023-09-12T09:33:07;59289.31;;;24.84;79.80
38400;BME280;24180;42.676;23.320;2023-09-12T09:35:33;59289.31;;;26.14;79.80
38400;BME280;24180;42.676;23.320;2023-09-12T09:37:59;59289.31;;;26.14;79.80
38400;BME280;24180;42.676;23.320;2023-09-12T09:40:24;59289.31;;;26.14;79.80
38400;BME280;24180;42.676;23.320;2023-09-12T09:42:58;59289.31;;;26.14;79.80
38400;BME280;24180;42.676;23.320;2023-09-12T09:45:24;58953.09;;;26.14;79.80
38400;BME280;24180;42.676;23.320;2023-09-12T09:47:50;59289.31;;;26.14;79.80
38400;BME280;24180;42.676;23.320;2023-09-12T09:50:16;58953.09;;;26.14;79.80
38400;BME280;24180;42.676;23.320;2023-09-12T09:52:43;59289.31;;;26.14;79.80
38400;BME280;24180;42.676;23.320;2023-09-12T09:55:13;59019.50;;;26.14;80.52
38400;BME280;24180;42.676;23.320;2023-09-12T09:57:40;59019.50;;;26.14;80.52
38400;BME280;24180;42.676;23.320;2023-09-12T10:00:06;59019.50;;;26.14;80.46
38400;BME280;24180;42.676;23.320;2023-09-12T10:02:35;59285.56;;;29.42;80.54
38400;BME280;24180;42.676;23.320;2023-09-12T10:05:04;57673.53;;;26.80;83.50
38400;BME280;24180;42.676;23.320;2023-09-12T10:07:32;59019.50;;;26.80;80.46
38400;BME280;24180;42.676;23.320;2023-09-12T10:10:01;57673.53;;;26.80;83.50
38400;BME280;24180;42.676;23.320;2023-09-12T10:12:28;55232.31;;;29.42;89.37
38400;BME280;24180;42.676;23.320;2023-09-12T10:14:58;57933.94;;;29.42;83.45
38400;BME280;24180;42.676;23.320;2023-09-12T10:17:31;57933.94;;;29.42;83.45
38400;BME280;24180;42.676;23.320;2023-09-12T10:20:03;55733.09;;;29.42;89.37
38400;BME280;24180;42.676;23.320;2023-09-12T10:22:51;57933.94;;;29.42;83.45
38400;BME280;24180;42.676;23.320;2023-09-12T10:25:19;57933.94;;;29.42;83.45
38400;BME280;24180;42.676;23.320;2023-09-12T10:27:46;57933.94;;;26.80;83.50
38400;BME280;24180;42.676;23.320;2023-09-12T10:30:12;57933.94;;;29.42;83.45
38400;BME280;24180;42.676;23.320;2023-09-12T10:32:38;57933.94;;;29.42;83.45
38400;BME280;24180;42.676;23.320;2023-09-12T10:35:06;55733.09;;;29.42;100.00
38400;BME280;24180;42.676;23.320;2023-09-12T10:37:35;110687.75;;;29.42;100.00
38400;BME280;24180;42.676;23.320;2023-09-12T10:40:02;57933.94;;;29.42;83.45
38400;BME280;24180;42.676;23.320;2023-09-12T10:42:32;59019.50;;;26.80;80.52
38400;BME280;24180;42.676;23.320;2023-09-12T10:44:59;59285.56;;;26.80;83.45
38400;BME280;24180;42.676;23.320;2023-09-12T10:47:26;50291.00;;;29.42;100.00
38400;BME280;24180;42.676;23.320;2023-09-12T10:49:52;57933.94;;;29.42;83.45
38400;BME280;24180;42.676;23.320;2023-09-12T10:52:24;58457.44;;;29.42;89.37
38400;BME280;24180;42.676;23.320;2023-09-12T10:54:51;57933.94;;;29.42;83.45
38400;BME280;24180;42.676;23.320;2023-09-12T10:57:16;57933.94;;;29.42;83.45
38400;BME280;24180;42.676;23.320;2023-09-12T11:02:39;57933.94;;;26.80;83.45
38400;BME280;24180;42.676;23.320;2023-09-12T11:05:06;55733.09;;;29.42;100.00
38400;BME280;24180;42.676;23.320;2023-09-12T11:07:44;57933.94;;;29.42;83.45
38400;BME280;24180;42.676;23.320;2023-09-12T11:12:44;57933.94;;;26.80;83.45
38400;BME280;24180;42.676;23.320;2023-09-12T11:15:10;57933.94;;;26.80;83.45
38400;BME280;24180;42.676;23.320;2023-09-12T11:17:37;57933.94;;;26.80;83.50
38400;BME280;24180;42.676;23.320;2023-09-12T11:20:03;58457.44;;;29.42;100.00
38400;BME280;24180;42.676;23.320;2023-09-12T11:22:36;59019.50;;;26.14;80.54
38400;BME280;24180;42.676;23.320;2023-09-12T11:25:02;59019.50;;;26.14;80.52
38400;BME280;24180;42.676;23.320;2023-09-12T11:27:32;57673.53;;;26.80;83.50
38400;BME280;24180;42.676;23.320;2023-09-12T11:30:09;57933.94;;;26.80;83.45
38400;BME280;24180;42.676;23.320;2023-09-12T11:32:36;57933.94;;;26.80;83.45
38400;BME280;24180;42.676;23.320;2023-09-12T11:35:08;57933.94;;;26.80;83.45
38400;BME280;24180;42.676;23.320;2023-09-12T11:37:34;59019.50;;;26.14;80.52
38400;BME280;24180;42.676;23.320;2023-09-12T11:40:15;59019.50;;;26.14;80.52
38400;BME280;24180;42.676;23.320;2023-09-12T11:42:42;58953.09;;;26.14;80.54
38400;BME280;24180;42.676;23.320;2023-09-12T11:45:11;59289.31;;;26.14;79.80
38400;BME280;24180;42.676;23.320;2023-09-12T11:47:44;59289.31;;;26.14;79.80
38400;BME280;24180;42.676;23.320;2023-09-12T11:50:29;59289.31;;;24.84;79.80
38400;BME280;24180;42.676;23.320;2023-09-12T11:53:05;59289.31;;;24.84;79.80
38400;BME280;24180;42.676;23.320;2023-09-12T11:55:35;59289.31;;;24.84;79.80
38400;BME280;24180;42.676;23.320;2023-09-12T11:58:01;59289.31;;;24.84;79.80
38400;BME280;24180;42.676;23.320;2023-09-12T12:00:28;59289.31;;;24.84;79.83
38400;BME280;24180;42.676;23.320;2023-09-12T12:02:55;59289.31;;;24.84;79.80
38400;BME280;24180;42.676;23.320;2023-09-12T12:05:21;59289.31;;;24.84;79.80
38400;BME280;24180;42.676;23.320;2023-09-12T12:07:48;59289.31;;;24.84;79.78
38400;BME280;24180;42.676;23.320;2023-09-12T12:10:14;59289.31;;;26.14;79.80
38400;BME280;24180;42.676;23.320;2023-09-12T12:12:39;59289.31;;;24.84;79.80
38400;BME280;24180;42.676;23.320;2023-09-12T12:15:09;59289.31;;;24.84;79.80
38400;BME280;24180;42.676;23.320;2023-09-12T12:17:36;59289.31;;;26.14;79.80
38400;BME280;24180;42.676;23.320;2023-09-12T12:20:02;59289.31;;;24.84;79.80
38400;BME280;24180;42.676;23.320;2023-09-12T12:22:32;59289.31;;;24.84;79.83
38400;BME280;24180;42.676;23.320;2023-09-12T12:25:06;59289.31;;;24.84;79.80
38400;BME280;24180;42.676;23.320;2023-09-12T12:27:32;59289.31;;;24.84;79.80
38400;BME280;24180;42.676;23.320;2023-09-12T12:29:57;59289.31;;;24.84;79.83
38400;BME280;24180;42.676;23.320;2023-09-12T12:32:22;59289.31;;;24.84;79.80
38400;BME280;24180;42.676;23.320;2023-09-12T12:34:48;59289.31;;;24.84;79.83
38400;BME280;24180;42.676;23.320;2023-09-12T12:37:14;59289.31;;;24.84;79.80
38400;BME280;24180;42.676;23.320;2023-09-12T12:39:42;59289.31;;;24.84;79.80
38400;BME280;24180;42.676;23.320;2023-09-12T12:42:09;59289.31;;;24.84;79.80
38400;BME280;24180;42.676;23.320;2023-09-12T12:44:34;59289.31;;;24.84;79.83
38400;BME280;24180;42.676;23.320;2023-09-12T12:47:08;59289.31;;;24.84;79.80
38400;BME280;24180;42.676;23.320;2023-09-12T12:49:37;59289.31;;;24.84;79.83
38400;BME280;24180;42.676;23.320;2023-09-12T12:52:09;59289.31;;;24.84;79.80
38400;BME280;24180;42.676;23.320;2023-09-12T12:54:35;59289.31;;;24.84;79.80
38400;BME280;24180;42.676;23.320;2023-09-12T12:57:00;59289.31;;;26.14;79.80
38400;BME280;24180;42.676;23.320;2023-09-12T12:59:26;59289.31;;;24.84;79.83
38400;BME280;24180;42.676;23.320;2023-09-12T13:01:52;59289.31;;;24.84;79.80